createdAt,value
2023-08-14T00:00:35.886Z,18.20
2023-08-14T00:02:38.691Z,18.30
2023-08-14T00:04:41.654Z,18.30
2023-08-14T00:06:44.444Z,18.30
2023-08-14T00:08:47.409Z,18.40
2023-08-14T00:10:51.602Z,18.40
2023-08-14T00:12:54.512Z,18.30
2023-08-14T00:14:57.266Z,18.30
2023-08-14T00:17:00.103Z,18.30
2023-08-14T00:19:03.030Z,18.20
2023-08-14T00:21:04.922Z,18.10
2023-08-14T00:23:07.777Z,18.10
2023-08-14T00:25:11.311Z,18.00
2023-08-14T00:27:15.492Z,18.00
2023-08-14T00:29:18.457Z,18.00
2023-08-14T00:31:21.391Z,18.00
2023-08-14T00:33:23.413Z,17.90
2023-08-14T00:35:26.535Z,17.90
2023-08-14T00:37:40.877Z,17.90
2023-08-14T00:39:43.932Z,17.90
2023-08-14T00:41:46.795Z,17.90
2023-08-14T00:43:52.629Z,17.90
2023-08-14T00:45:57.364Z,17.90
2023-08-14T00:48:00.489Z,17.80
2023-08-14T00:50:02.997Z,17.80
2023-08-14T00:52:06.416Z,17.80
2023-08-14T00:54:09.412Z,17.80
2023-08-14T00:56:12.453Z,17.80
2023-08-14T00:58:15.682Z,17.80
2023-08-14T01:00:19.941Z,17.90
2023-08-14T01:02:23.841Z,17.90
2023-08-14T01:04:26.716Z,17.90
2023-08-14T01:06:30.140Z,18.00
2023-08-14T01:08:33.452Z,18.00
2023-08-14T01:10:47.587Z,17.90
2023-08-14T01:12:57.667Z,17.90
2023-08-14T01:15:05.768Z,17.90
2023-08-14T01:17:16.132Z,17.80
2023-08-14T01:19:26.536Z,17.80
2023-08-14T01:21:42.595Z,17.80
2023-08-14T01:23:54.536Z,17.80
2023-08-14T01:25:59.139Z,17.80
2023-08-14T01:28:03.777Z,17.70
2023-08-14T01:30:08.695Z,17.70
2023-08-14T01:32:11.456Z,17.70
2023-08-14T01:34:15.137Z,17.70
2023-08-14T01:36:22.519Z,17.70
2023-08-14T01:38:34.731Z,17.60
2023-08-14T01:40:46.443Z,17.60
2023-08-14T01:42:54.470Z,17.60
2023-08-14T01:45:02.712Z,17.60
2023-08-14T01:47:07.935Z,17.60
2023-08-14T01:49:13.599Z,17.60
2023-08-14T01:51:18.533Z,17.50
2023-08-14T01:53:21.344Z,17.50
2023-08-14T01:55:25.297Z,17.50
2023-08-14T01:57:28.426Z,17.50
2023-08-14T01:59:46.601Z,17.40
2023-08-14T02:01:49.535Z,17.40
2023-08-14T02:03:52.533Z,17.40
2023-08-14T02:05:55.371Z,17.30
2023-08-14T02:07:58.270Z,17.30
2023-08-14T02:10:01.091Z,17.30
2023-08-14T02:12:04.712Z,17.30
2023-08-14T02:14:07.526Z,17.20
2023-08-14T02:16:11.765Z,17.20
2023-08-14T02:18:14.661Z,17.20
2023-08-14T02:20:17.686Z,17.10
2023-08-14T02:22:20.584Z,17.10
2023-08-14T02:24:23.533Z,17.10
2023-08-14T02:26:25.442Z,17.00
2023-08-14T02:28:28.416Z,17.00
2023-08-14T02:30:31.364Z,17.00
2023-08-14T02:32:35.943Z,17.00
2023-08-14T02:34:46.139Z,17.00
2023-08-14T02:36:48.894Z,16.90
2023-08-14T02:38:52.011Z,16.90
2023-08-14T02:40:54.836Z,16.90
2023-08-14T02:43:02.341Z,16.90
2023-08-14T02:45:06.244Z,16.80
2023-08-14T02:47:09.045Z,16.80
2023-08-14T02:49:13.170Z,16.70
2023-08-14T02:51:18.057Z,16.70
2023-08-14T02:53:20.881Z,16.60
2023-08-14T02:55:22.768Z,16.50
2023-08-14T02:57:25.620Z,16.50
2023-08-14T02:59:28.390Z,16.60
2023-08-14T03:01:31.291Z,16.60
2023-08-14T03:03:34.223Z,16.60
2023-08-14T03:05:41.499Z,16.50
2023-08-14T03:07:44.314Z,16.50
2023-08-14T03:09:47.054Z,16.50
2023-08-14T03:11:49.855Z,16.50
2023-08-14T03:13:52.679Z,16.50
2023-08-14T03:15:55.550Z,16.50
2023-08-14T03:17:58.452Z,16.60
2023-08-14T03:20:01.408Z,16.70
2023-08-14T03:22:05.587Z,16.80
2023-08-14T03:24:07.783Z,16.80
2023-08-14T03:26:11.307Z,16.90
2023-08-14T03:28:14.164Z,17.00
2023-08-14T03:30:17.222Z,17.00
2023-08-14T03:32:20.355Z,17.00
2023-08-14T03:34:23.439Z,16.90
2023-08-14T03:36:26.295Z,16.90
2023-08-14T03:38:32.009Z,16.90
2023-08-14T03:40:35.082Z,16.80
2023-08-14T03:42:37.962Z,16.80
2023-08-14T03:44:40.787Z,16.80
2023-08-14T03:46:43.586Z,16.80
2023-08-14T03:48:47.713Z,16.80
2023-08-14T03:50:51.734Z,16.80
2023-08-14T03:52:54.542Z,16.80
2023-08-14T03:54:58.909Z,16.70
2023-08-14T03:57:01.785Z,16.70
2023-08-14T03:59:05.968Z,16.70
2023-08-14T04:01:08.788Z,16.70
2023-08-14T04:03:11.663Z,16.70
2023-08-14T04:05:14.524Z,16.70
2023-08-14T04:07:17.306Z,16.70
2023-08-14T04:09:20.156Z,16.70
2023-08-14T04:11:24.560Z,16.70
2023-08-14T04:13:27.982Z,16.70
2023-08-14T04:15:32.962Z,16.80
2023-08-14T04:17:35.979Z,16.80
2023-08-14T04:19:38.884Z,16.80
2023-08-14T04:21:40.801Z,16.80
2023-08-14T04:23:43.666Z,16.80
2023-08-14T04:25:46.463Z,16.90
2023-08-14T04:27:50.578Z,16.90
2023-08-14T04:29:53.388Z,17.00
2023-08-14T04:31:56.354Z,17.00
2023-08-14T04:33:59.253Z,17.00
2023-08-14T04:36:02.098Z,17.10
2023-08-14T04:38:05.454Z,17.10
2023-08-14T04:40:09.618Z,17.20
2023-08-14T04:42:12.424Z,17.20
2023-08-14T04:44:16.631Z,17.20
2023-08-14T04:46:33.916Z,17.20
2023-08-14T04:48:44.362Z,17.20
2023-08-14T04:50:47.142Z,17.30
2023-08-14T04:52:49.919Z,17.30
2023-08-14T04:54:52.783Z,17.40
2023-08-14T04:56:55.891Z,17.40
2023-08-14T04:58:58.196Z,17.40
2023-08-14T05:01:02.451Z,17.50
2023-08-14T05:03:05.840Z,17.50
2023-08-14T05:05:09.303Z,17.60
2023-08-14T05:07:12.217Z,17.60
2023-08-14T05:09:25.534Z,17.70
2023-08-14T05:11:29.764Z,17.70
2023-08-14T05:13:32.555Z,17.70
2023-08-14T05:15:35.425Z,17.80
2023-08-14T05:17:39.752Z,17.80
2023-08-14T05:19:42.631Z,17.80
2023-08-14T05:21:46.294Z,17.90
2023-08-14T05:23:49.154Z,17.90
2023-08-14T05:25:51.988Z,17.90
2023-08-14T05:27:56.508Z,18.00
2023-08-14T05:29:59.953Z,18.00
2023-08-14T05:32:02.946Z,18.00
2023-08-14T05:34:07.275Z,18.10
2023-08-14T05:36:10.217Z,18.10
2023-08-14T05:38:14.070Z,18.20
2023-08-14T05:40:20.784Z,18.20
2023-08-14T05:42:23.716Z,18.20
2023-08-14T05:44:26.652Z,18.30
2023-08-14T05:46:30.684Z,18.30
2023-08-14T05:48:33.546Z,18.30
2023-08-14T05:50:38.479Z,18.30
2023-08-14T05:52:41.399Z,18.30
2023-08-14T05:54:44.355Z,18.30
2023-08-14T05:56:47.334Z,18.30
2023-08-14T05:58:50.210Z,18.30
2023-08-14T06:00:53.070Z,18.30
2023-08-14T06:02:56.072Z,18.30
2023-08-14T06:04:58.978Z,18.40
2023-08-14T06:07:03.081Z,18.40
2023-08-14T06:09:06.103Z,18.40
2023-08-14T06:11:08.940Z,18.40
2023-08-14T06:13:12.268Z,18.50
2023-08-14T06:15:15.110Z,18.60
2023-08-14T06:17:17.954Z,18.60
2023-08-14T06:19:20.906Z,18.70
2023-08-14T06:21:23.812Z,18.90
2023-08-14T06:23:28.198Z,19.00
2023-08-14T06:25:32.552Z,19.20
2023-08-14T06:27:35.847Z,19.30
2023-08-14T06:29:38.697Z,19.50
2023-08-14T06:31:41.725Z,19.60
2023-08-14T06:33:45.841Z,19.70
2023-08-14T06:35:49.275Z,19.70
2023-08-14T06:38:08.397Z,19.70
2023-08-14T06:40:13.621Z,19.80
2023-08-14T06:42:15.550Z,19.90
2023-08-14T06:44:18.561Z,19.90
2023-08-14T06:46:21.541Z,20.00
2023-08-14T06:48:24.526Z,20.00
2023-08-14T06:50:26.493Z,20.00
2023-08-14T06:52:29.429Z,20.00
2023-08-14T06:54:32.336Z,20.00
2023-08-14T06:56:36.606Z,20.10
2023-08-14T06:58:39.477Z,20.10
2023-08-14T07:00:42.436Z,20.30
2023-08-14T07:02:47.730Z,20.50
2023-08-14T07:04:51.431Z,20.60
2023-08-14T07:06:54.414Z,20.70
2023-08-14T07:08:57.413Z,20.80
2023-08-14T07:11:00.842Z,20.90
2023-08-14T07:13:07.878Z,21.10
2023-08-14T07:15:12.984Z,21.20
2023-08-14T07:17:16.404Z,21.50
2023-08-14T07:19:19.541Z,21.60
2023-08-14T07:21:21.516Z,21.70
2023-08-14T07:23:24.469Z,21.80
2023-08-14T07:25:28.041Z,21.80
2023-08-14T07:27:31.018Z,21.90
2023-08-14T07:29:36.153Z,22.00
2023-08-14T07:31:39.473Z,22.00
2023-08-14T07:33:42.551Z,22.10
2023-08-14T07:35:46.206Z,22.20
2023-08-14T07:37:48.860Z,22.50
2023-08-14T07:39:51.924Z,22.50
2023-08-14T07:41:54.892Z,22.70
2023-08-14T07:43:57.810Z,22.80
2023-08-14T07:46:02.303Z,22.90
2023-08-14T07:48:05.883Z,23.00
2023-08-14T07:50:09.802Z,23.10
2023-08-14T07:52:12.690Z,23.20
2023-08-14T07:54:15.746Z,23.30
2023-08-14T07:56:18.683Z,23.30
2023-08-14T07:58:21.693Z,23.30
2023-08-14T08:00:24.826Z,23.30
2023-08-14T08:02:29.752Z,23.20
2023-08-14T08:04:40.734Z,23.30
2023-08-14T08:06:44.831Z,23.40
2023-08-14T08:08:48.636Z,23.50
2023-08-14T08:10:52.723Z,23.70
2023-08-14T08:15:00.217Z,24.20
2023-08-14T08:17:03.273Z,24.40
2023-08-14T08:19:08.558Z,24.60
2023-08-14T08:21:11.545Z,24.70
2023-08-14T08:23:14.562Z,24.80
2023-08-14T08:25:18.243Z,24.70
2023-08-14T08:27:21.188Z,24.60
2023-08-14T08:29:24.099Z,24.50
2023-08-14T08:31:27.235Z,24.50
2023-08-14T08:33:30.327Z,24.40
2023-08-14T08:35:34.652Z,24.40
2023-08-14T08:37:38.043Z,24.50
2023-08-14T08:39:41.083Z,24.60
2023-08-14T08:41:46.632Z,24.80
2023-08-14T08:43:51.955Z,25.00
2023-08-14T08:45:56.437Z,25.10
2023-08-14T08:48:02.163Z,25.20
2023-08-14T08:50:06.763Z,25.30
2023-08-14T08:52:13.206Z,25.50
2023-08-14T08:54:16.540Z,25.70
2023-08-14T08:56:19.644Z,25.70
2023-08-14T08:58:23.555Z,25.70
2023-08-14T09:00:26.597Z,25.50
2023-08-14T09:02:29.964Z,25.50
2023-08-14T09:04:33.052Z,25.40
2023-08-14T09:06:36.183Z,25.40
2023-08-14T09:08:40.572Z,25.40
2023-08-14T09:10:43.437Z,25.40
2023-08-14T09:12:46.344Z,25.40
2023-08-14T09:15:03.604Z,25.40
2023-08-14T09:17:05.799Z,25.50
2023-08-14T09:19:08.627Z,25.60
2023-08-14T09:21:12.006Z,25.70
2023-08-14T09:23:15.049Z,25.90
2023-08-14T09:25:19.904Z,26.10
2023-08-14T09:27:23.995Z,26.40
2023-08-14T09:29:27.531Z,26.70
2023-08-14T09:31:35.377Z,27.00
2023-08-14T09:33:39.125Z,27.30
2023-08-14T09:35:42.170Z,27.50
2023-08-14T09:37:45.174Z,27.70
2023-08-14T09:39:48.222Z,27.90
2023-08-14T09:41:52.501Z,28.20
2023-08-14T09:43:55.930Z,28.20
2023-08-14T09:46:00.389Z,28.30
2023-08-14T09:48:04.843Z,28.60
2023-08-14T09:50:09.223Z,28.70
2023-08-14T09:52:12.746Z,28.80
2023-08-14T09:54:15.704Z,29.00
2023-08-14T09:56:19.169Z,29.10
2023-08-14T09:58:23.521Z,29.30
2023-08-14T10:00:33.064Z,29.30
2023-08-14T10:02:38.222Z,29.40
2023-08-14T10:04:42.760Z,29.60
2023-08-14T10:06:46.556Z,29.70
2023-08-14T10:08:52.882Z,29.70
2023-08-14T10:11:17.298Z,29.60
2023-08-14T10:13:21.654Z,29.90
2023-08-14T10:15:28.661Z,30.20
2023-08-14T10:17:33.592Z,30.40
2023-08-14T10:19:36.759Z,30.50
2023-08-14T10:21:42.221Z,30.40
2023-08-14T10:23:48.327Z,30.30
2023-08-14T10:25:52.962Z,30.10
2023-08-14T10:27:55.982Z,29.70
2023-08-14T10:29:59.464Z,29.50
2023-08-14T10:32:04.606Z,29.50
2023-08-14T10:34:07.822Z,29.30
2023-08-14T10:36:20.172Z,29.30
2023-08-14T10:38:25.404Z,29.50
2023-08-14T10:40:28.906Z,29.70
2023-08-14T10:42:31.817Z,29.90
2023-08-14T10:44:37.482Z,30.00
2023-08-14T10:46:42.303Z,30.10
2023-08-14T10:48:50.342Z,30.10
2023-08-14T10:51:01.650Z,30.20
2023-08-14T10:53:06.817Z,30.20
2023-08-14T10:55:17.215Z,30.20
2023-08-14T10:57:28.963Z,30.10
2023-08-14T10:59:32.927Z,29.90
2023-08-14T11:01:37.106Z,29.70
2023-08-14T11:04:08.605Z,29.60
2023-08-14T11:06:11.706Z,29.70
2023-08-14T11:08:16.680Z,29.60
2023-08-14T11:10:18.841Z,29.70
2023-08-14T11:12:23.013Z,29.70
2023-08-14T11:14:25.038Z,29.70
2023-08-14T11:16:29.586Z,29.80
2023-08-14T11:18:32.596Z,29.80
2023-08-14T11:20:38.320Z,29.90
2023-08-14T11:22:45.261Z,29.90
2023-08-14T11:24:48.590Z,29.90
2023-08-14T11:26:50.530Z,29.90
2023-08-14T11:28:53.444Z,30.00
2023-08-14T11:30:56.500Z,29.90
2023-08-14T11:32:59.536Z,29.80
2023-08-14T11:35:04.628Z,29.80
2023-08-14T11:37:10.034Z,29.70
2023-08-14T11:39:14.195Z,29.90
2023-08-14T11:41:23.778Z,30.10
2023-08-14T11:43:33.709Z,30.20
2023-08-14T11:45:38.618Z,30.10
2023-08-14T11:47:45.707Z,30.20
2023-08-14T11:49:51.832Z,30.40
2023-08-14T11:51:55.286Z,30.40
2023-08-14T11:54:01.082Z,30.50
2023-08-14T11:56:04.741Z,30.50
2023-08-14T11:58:07.629Z,30.50
2023-08-14T12:00:12.786Z,30.50
2023-08-14T12:02:16.403Z,30.40
2023-08-14T12:04:19.831Z,30.50
2023-08-14T12:06:24.086Z,30.40
2023-08-14T12:08:29.305Z,30.50
2023-08-14T12:10:36.509Z,30.80
2023-08-14T12:12:48.696Z,31.10
2023-08-14T12:14:58.826Z,31.30
2023-08-14T12:17:10.206Z,31.40
2023-08-14T12:19:16.080Z,31.50
2023-08-14T12:21:18.223Z,31.30
2023-08-14T12:23:24.530Z,31.20
2023-08-14T12:25:30.528Z,31.00
2023-08-14T12:27:34.761Z,30.90
2023-08-14T12:29:37.874Z,30.70
2023-08-14T12:31:40.932Z,30.60
2023-08-14T12:33:46.923Z,30.50
2023-08-14T12:35:53.828Z,30.50
2023-08-14T12:37:56.780Z,30.50
2023-08-14T12:39:59.738Z,30.50
2023-08-14T12:42:03.697Z,30.40
2023-08-14T12:44:08.346Z,30.50
2023-08-14T12:46:11.354Z,30.70
2023-08-14T12:48:14.477Z,30.70
2023-08-14T12:50:17.446Z,31.00
2023-08-14T12:52:19.396Z,31.10
2023-08-14T12:54:22.801Z,31.10
2023-08-14T12:56:25.674Z,31.00
2023-08-14T12:58:28.646Z,30.90
2023-08-14T13:00:33.032Z,30.70
2023-08-14T13:02:36.099Z,30.60
2023-08-14T13:06:43.278Z,30.50
2023-08-14T13:08:46.208Z,30.60
2023-08-14T13:10:49.075Z,30.50
2023-08-14T13:12:55.249Z,30.50
2023-08-14T13:14:58.159Z,30.50
2023-08-14T13:17:02.474Z,30.60
2023-08-14T13:19:05.797Z,30.70
2023-08-14T13:21:08.738Z,30.60
2023-08-14T13:23:11.638Z,30.60
2023-08-14T13:25:17.151Z,30.40
2023-08-14T13:27:20.234Z,30.20
2023-08-14T13:29:23.387Z,30.00
2023-08-14T13:31:28.549Z,30.00
2023-08-14T13:33:32.035Z,29.90
2023-08-14T13:35:35.097Z,29.80
2023-08-14T13:37:39.945Z,29.80
2023-08-14T13:39:44.858Z,29.80
2023-08-14T13:41:47.687Z,29.90
2023-08-14T13:43:50.608Z,29.80
2023-08-14T13:45:54.416Z,29.80
2023-08-14T13:47:58.078Z,29.70
2023-08-14T13:50:02.468Z,29.50
2023-08-14T13:52:04.699Z,29.50
2023-08-14T13:54:07.973Z,29.40
2023-08-14T13:56:10.874Z,29.30
2023-08-14T13:58:13.758Z,29.30
2023-08-14T14:00:17.415Z,29.30
2023-08-14T14:02:21.074Z,29.40
2023-08-14T14:04:24.112Z,29.50
2023-08-14T14:06:28.391Z,29.40
2023-08-14T14:08:31.272Z,29.40
2023-08-14T14:10:34.213Z,29.20
2023-08-14T14:12:39.226Z,29.00
2023-08-14T14:14:42.309Z,28.90
2023-08-14T14:17:04.150Z,28.80
2023-08-14T14:19:07.715Z,28.60
2023-08-14T14:21:10.815Z,28.50
2023-08-14T14:23:15.553Z,28.40
2023-08-14T14:25:18.702Z,28.30
2023-08-14T14:27:21.680Z,28.30
2023-08-14T14:29:25.832Z,28.30
2023-08-14T14:31:28.769Z,28.30
2023-08-14T14:33:31.650Z,28.50
2023-08-14T14:35:34.557Z,28.50
2023-08-14T14:37:37.524Z,28.60
2023-08-14T14:39:41.736Z,28.60
2023-08-14T14:41:44.614Z,28.70
2023-08-14T14:43:47.490Z,28.70
2023-08-14T14:45:50.439Z,28.80
2023-08-14T14:47:53.361Z,28.80
2023-08-14T14:49:56.444Z,28.80
2023-08-14T14:52:02.052Z,28.80
2023-08-14T14:54:05.401Z,28.90
2023-08-14T14:56:09.639Z,29.00
2023-08-14T14:58:12.735Z,29.10
2023-08-14T15:00:17.351Z,29.00
2023-08-14T15:02:29.617Z,28.90
2023-08-14T15:04:33.037Z,28.90
2023-08-14T15:06:38.334Z,28.80
2023-08-14T15:08:41.682Z,28.70
2023-08-14T15:10:44.671Z,28.70
2023-08-14T15:12:49.061Z,28.70
2023-08-14T15:14:52.052Z,28.60
2023-08-14T15:16:55.033Z,28.60
2023-08-14T15:18:57.958Z,28.40
2023-08-14T15:21:00.960Z,28.40
2023-08-14T15:23:03.844Z,28.30
2023-08-14T15:25:09.023Z,28.30
2023-08-14T15:27:12.265Z,28.30
2023-08-14T15:29:16.926Z,28.60
2023-08-14T15:31:19.931Z,28.90
2023-08-14T15:33:22.903Z,29.30
2023-08-14T15:35:26.284Z,29.40
2023-08-14T15:37:29.346Z,29.50
2023-08-14T15:39:32.601Z,29.50
2023-08-14T15:41:35.651Z,29.40
2023-08-14T15:43:38.717Z,29.30
2023-08-14T15:45:43.264Z,29.30
2023-08-14T15:47:47.066Z,29.20
2023-08-14T15:49:50.032Z,29.10
2023-08-14T15:51:52.974Z,29.00
2023-08-14T15:53:55.899Z,28.80
2023-08-14T15:55:57.766Z,28.60
2023-08-14T15:58:00.721Z,28.40
2023-08-14T16:00:07.480Z,28.10
2023-08-14T16:02:10.913Z,28.00
2023-08-14T16:04:14.007Z,27.80
2023-08-14T16:06:17.046Z,27.70
2023-08-14T16:08:19.881Z,27.60
2023-08-14T16:10:22.995Z,27.60
2023-08-14T16:12:25.987Z,27.60
2023-08-14T16:14:28.916Z,27.60
2023-08-14T16:16:31.835Z,27.60
2023-08-14T16:18:36.484Z,27.60
2023-08-14T16:20:39.580Z,27.60
2023-08-14T16:22:42.670Z,27.50
2023-08-14T16:24:45.536Z,27.40
2023-08-14T16:26:48.472Z,27.40
2023-08-14T16:28:51.441Z,27.40
2023-08-14T16:30:55.057Z,27.40
2023-08-14T16:32:58.211Z,27.40
2023-08-14T16:35:02.819Z,27.30
2023-08-14T16:37:06.775Z,27.20
2023-08-14T16:39:12.218Z,27.20
2023-08-14T16:41:17.108Z,27.10
2023-08-14T16:43:20.496Z,27.10
2023-08-14T16:45:23.501Z,27.00
2023-08-14T16:47:26.553Z,26.90
2023-08-14T16:49:29.455Z,26.90
2023-08-14T16:51:33.589Z,26.80
2023-08-14T16:53:38.928Z,26.80
2023-08-14T16:55:41.856Z,26.70
2023-08-14T16:57:44.733Z,26.70
2023-08-14T16:59:47.488Z,26.70
2023-08-14T17:01:50.302Z,26.70
2023-08-14T17:03:53.134Z,26.70
2023-08-14T17:06:00.092Z,26.70
2023-08-14T17:08:04.818Z,26.80
2023-08-14T17:10:08.303Z,26.80
2023-08-14T17:12:11.058Z,27.10
2023-08-14T17:14:16.964Z,27.90
2023-08-14T17:16:20.271Z,28.70
2023-08-14T17:18:23.413Z,29.10
2023-08-14T17:20:26.267Z,29.20
2023-08-14T17:22:29.089Z,29.30
2023-08-14T17:24:33.414Z,29.40
2023-08-14T17:26:36.241Z,29.40
2023-08-14T17:28:39.041Z,29.30
2023-08-14T17:30:41.841Z,29.10
2023-08-14T17:32:44.704Z,29.10
2023-08-14T17:34:48.935Z,29.00
2023-08-14T17:36:51.703Z,28.90
2023-08-14T17:38:54.648Z,28.90
2023-08-14T17:40:58.783Z,28.80
2023-08-14T17:43:01.543Z,28.70
2023-08-14T17:45:04.576Z,28.60
2023-08-14T17:47:07.576Z,28.40
2023-08-14T17:49:10.361Z,28.30
2023-08-14T17:51:13.186Z,28.20
2023-08-14T17:53:15.002Z,28.00
2023-08-14T17:55:17.969Z,27.90
2023-08-14T17:57:22.371Z,27.70
2023-08-14T17:59:25.416Z,27.50
2023-08-14T18:01:29.252Z,27.40
2023-08-14T18:03:33.328Z,27.20
2023-08-14T18:05:36.282Z,27.00
2023-08-14T18:07:39.117Z,26.90
2023-08-14T18:09:42.834Z,26.80
2023-08-14T18:11:45.607Z,26.70
2023-08-14T18:13:49.877Z,26.50
2023-08-14T18:15:52.753Z,26.40
2023-08-14T18:17:55.667Z,26.30
2023-08-14T18:19:58.495Z,26.20
2023-08-14T18:22:01.455Z,26.10
2023-08-14T18:24:04.506Z,25.90
2023-08-14T18:26:07.419Z,25.80
2023-08-14T18:28:10.338Z,25.60
2023-08-14T18:30:14.906Z,25.50
2023-08-14T18:32:17.702Z,25.40
2023-08-14T18:34:20.591Z,25.30
2023-08-14T18:36:23.385Z,25.20
2023-08-14T18:38:26.813Z,25.10
2023-08-14T18:40:29.607Z,25.00
2023-08-14T18:42:32.468Z,24.90
2023-08-14T18:44:35.302Z,24.70
2023-08-14T18:46:39.624Z,24.70
2023-08-14T18:48:42.567Z,24.60
2023-08-14T18:50:44.426Z,24.50
2023-08-14T18:52:47.713Z,24.40
2023-08-14T18:54:50.631Z,24.30
2023-08-14T18:56:53.424Z,24.20
2023-08-14T18:58:58.594Z,24.20
2023-08-14T19:01:01.461Z,24.10
2023-08-14T19:03:06.797Z,24.10
2023-08-14T19:05:11.070Z,24.00
2023-08-14T19:07:14.284Z,23.90
2023-08-14T19:09:16.183Z,23.80
2023-08-14T19:11:19.016Z,23.80
2023-08-14T19:13:21.797Z,23.70
2023-08-14T19:15:24.697Z,23.70
2023-08-14T19:17:27.621Z,23.70
2023-08-14T19:19:31.866Z,23.60
2023-08-14T19:21:34.984Z,23.60
2023-08-14T19:23:37.768Z,23.50
2023-08-14T19:25:40.574Z,23.40
2023-08-14T19:27:43.314Z,23.40
2023-08-14T19:29:46.067Z,23.30
2023-08-14T19:31:48.851Z,23.30
2023-08-14T19:33:53.342Z,23.20
2023-08-14T19:35:57.619Z,23.20
2023-08-14T19:38:00.410Z,23.20
2023-08-14T19:40:03.585Z,23.20
2023-08-14T19:42:06.584Z,23.20
2023-08-14T19:44:10.942Z,23.20
2023-08-14T19:46:13.765Z,23.10
2023-08-14T19:48:16.504Z,23.00
2023-08-14T19:50:19.610Z,23.00
2023-08-14T19:52:23.706Z,22.90
2023-08-14T19:54:29.509Z,22.80
2023-08-14T19:56:32.280Z,22.80
2023-08-14T19:58:35.114Z,22.70
2023-08-14T20:00:37.953Z,22.70
2023-08-14T20:02:41.006Z,22.60
2023-08-14T20:04:44.072Z,22.60
2023-08-14T20:06:46.957Z,22.50
2023-08-14T20:08:51.108Z,22.50
2023-08-14T20:11:00.865Z,22.40
2023-08-14T20:13:03.887Z,22.40
2023-08-14T20:15:08.417Z,22.30
2023-08-14T20:17:11.213Z,22.30
2023-08-14T20:19:14.036Z,22.30
2023-08-14T20:21:16.825Z,22.20
2023-08-14T20:23:18.678Z,22.20
2023-08-14T20:25:22.818Z,22.10
2023-08-14T20:27:25.576Z,22.10
2023-08-14T20:29:29.052Z,22.00
2023-08-14T20:31:31.889Z,22.00
2023-08-14T20:33:34.625Z,21.90
2023-08-14T20:35:40.826Z,21.90
2023-08-14T20:37:44.881Z,21.80
2023-08-14T20:39:47.608Z,21.80
2023-08-14T20:41:51.674Z,21.70
2023-08-14T20:43:54.565Z,21.70
2023-08-14T20:45:56.391Z,21.70
2023-08-14T20:48:00.973Z,21.60
2023-08-14T20:50:04.038Z,21.60
2023-08-14T20:52:06.885Z,21.50
2023-08-14T20:54:09.761Z,21.50
2023-08-14T20:56:12.613Z,21.50
2023-08-14T20:58:16.750Z,21.40
2023-08-14T21:00:19.859Z,21.40
2023-08-14T21:02:22.698Z,21.40
2023-08-14T21:04:25.492Z,21.40
2023-08-14T21:06:28.270Z,21.40
2023-08-14T21:08:31.025Z,21.30
2023-08-14T21:10:33.809Z,21.30
2023-08-14T21:12:36.584Z,21.30
2023-08-14T21:14:40.666Z,21.20
2023-08-14T21:16:43.430Z,21.20
2023-08-14T21:18:46.377Z,21.10
2023-08-14T21:20:49.139Z,21.20
2023-08-14T21:22:52.042Z,21.20
2023-08-14T21:24:54.779Z,21.20
2023-08-14T21:26:57.511Z,21.10
2023-08-14T21:28:59.380Z,21.10
2023-08-14T21:31:03.646Z,21.10
2023-08-14T21:33:06.901Z,21.10
2023-08-14T21:35:10.396Z,21.00
2023-08-14T21:37:13.348Z,21.00
2023-08-14T21:39:15.954Z,20.90
2023-08-14T21:41:18.896Z,20.90
2023-08-14T21:43:21.679Z,20.80
2023-08-14T21:45:24.761Z,20.80
2023-08-14T21:47:30.121Z,20.80
2023-08-14T21:49:33.779Z,20.80
2023-08-14T21:51:36.655Z,20.80
2023-08-14T21:53:39.467Z,20.70
2023-08-14T21:55:42.221Z,20.70
2023-08-14T21:57:45.049Z,20.70
2023-08-14T21:59:47.938Z,20.70
2023-08-14T22:01:50.753Z,20.70
2023-08-14T22:03:55.868Z,20.70
2023-08-14T22:06:03.029Z,20.60
2023-08-14T22:08:05.645Z,20.60
2023-08-14T22:10:10.728Z,20.60
2023-08-14T22:12:13.483Z,20.60
2023-08-14T22:14:15.282Z,20.50
2023-08-14T22:16:18.235Z,20.50
2023-08-14T22:18:21.289Z,20.50
2023-08-14T22:20:25.326Z,20.50
2023-08-14T22:22:28.257Z,20.40
2023-08-14T22:24:40.589Z,20.40
2023-08-14T22:26:44.885Z,20.40
2023-08-14T22:28:47.063Z,20.40
2023-08-14T22:30:53.041Z,20.40
2023-08-14T22:32:56.768Z,20.40
2023-08-14T22:34:59.569Z,20.30
2023-08-14T22:37:03.742Z,20.30
2023-08-14T22:39:06.503Z,20.20
2023-08-14T22:41:09.311Z,20.20
2023-08-14T22:43:12.154Z,20.20
2023-08-14T22:45:15.059Z,20.20
2023-08-14T22:47:18.046Z,20.20
2023-08-14T22:49:21.175Z,20.10
2023-08-14T22:51:23.003Z,20.00
2023-08-14T22:53:27.168Z,20.00
2023-08-14T22:55:29.833Z,20.00
2023-08-14T22:57:32.615Z,20.00
2023-08-14T22:59:35.591Z,20.00
2023-08-14T23:01:38.384Z,20.00
2023-08-14T23:03:41.259Z,20.00
2023-08-14T23:05:44.084Z,19.90
2023-08-14T23:07:46.869Z,19.90
2023-08-14T23:09:51.237Z,19.90
2023-08-14T23:11:54.232Z,19.80
2023-08-14T23:13:56.984Z,19.90
2023-08-14T23:16:11.513Z,19.90
2023-08-14T23:18:14.368Z,19.90
2023-08-14T23:20:17.190Z,19.90
2023-08-14T23:22:20.047Z,19.90
2023-08-14T23:24:22.825Z,19.80
2023-08-14T23:26:27.103Z,19.80
2023-08-14T23:28:29.958Z,19.80
2023-08-14T23:30:33.180Z,19.80
2023-08-14T23:32:36.071Z,19.70
2023-08-14T23:34:39.238Z,19.70
2023-08-14T23:36:42.203Z,19.60
2023-08-14T23:38:45.749Z,19.60
2023-08-14T23:40:48.660Z,19.60
2023-08-14T23:42:53.330Z,19.50
2023-08-14T23:44:56.164Z,19.50
2023-08-14T23:46:59.007Z,19.50
2023-08-14T23:49:01.909Z,19.50
2023-08-14T23:51:04.992Z,19.50
2023-08-14T23:53:07.851Z,19.50
2023-08-14T23:55:10.964Z,19.50
2023-08-14T23:57:12.954Z,19.50
2023-08-14T23:59:17.351Z,19.50
